Pagrindinis puslapis
METAR-TAF:

METAR-TAF

Oro uostai :

Finkenwerder, Vokietija

platuma: 53-32N, ilguma: 009-50E, Aukštis: 5 m

Dabartinis oras

Ataskaita buvo paskelbta 26 minutes, ne 20:20 UTC
Vėjas 2 kt iš Vakarų/Pietvakarių
Temperatūra 14°C
Drėgmė 82%
Slėgis 1025 hPa
Matomumas 10 km arba daugiau

METAR: EDHI 202020Z AUTO 24002KT 9999 // OVC033/// 14/11 Q1025

Laikas: 22:46 (20:46 UTC)

Prognozė

Ataskaita buvo paskelbta 3 valandos ir 46 minutes, ne 17:00 UTC
Prognozė galioja nuo 20 metu 18 UTC su 20 metu 21 UTC
Vėjas 4 kt iš Vakarų/Pietvakarių
Matomumas 10 km arba daugiau
Su prošvaistėmis ne aukštis 3000 ft

TAF: EDHI 201700Z 2018/2021 25004KT 9999 BKN030

Orai ataskaitas ir orų prognozės (METAR, TAF).

turimą stotys yra geltonos ir raudonos taškus žemėlapyje.

Perkelti pele per norėdami pamatyti stoties vardą.

Tada spustelėkite, norėdami matyti oro stebėjimo ir prognozės.

Norėdami pakeisti žemėlapį: spustelėkite ant žalios mygtukų su juodo kryžiaus žemyn,; žalią mygtuką su brūkšneliu, jei norite nutolinti; arba žalių rodyklių gretimoms žemėlapius.


METAR-TAF: